Time;durP1;ratioP1;P1;durP2;ratioP2;P2;SDS_P1;SDS_P2;PMS_P1;PMS_P2;Temp;Humidity;BMP_temperature;BMP_pressure;BME280_temperature;BME280_humidity;BME280_pressure;Samples;Min_cycle;Max_cycle;Signal;HPM_P1;HPM_P2
2022/06/20 00:00:13;;;;;;;2.87;1.45;;;;;;;24.14;37.18;95980.25;1738040;80;21378;-81
2022/06/20 00:02:43;;;;;;;4.12;1.62;;;;;;;24.10;36.99;95976.04;1759517;80;21362;-81
2022/06/20 00:05:14;;;;;;;2.80;1.45;;;;;;;24.08;37.10;95973.38;1731847;82;21116;-81
2022/06/20 00:07:39;;;;;;;4.33;1.57;;;;;;;24.05;37.66;95976.05;1728865;80;21037;-80
2022/06/20 00:10:06;;;;;;;2.75;1.50;;;;;;;24.02;37.38;95985.11;1692743;82;21023;-81
2022/06/20 00:12:31;;;;;;;6.30;2.00;;;;;;;24.01;37.22;95972.38;1694827;82;21331;-81
2022/06/20 00:14:59;;;;;;;5.00;1.90;;;;;;;24.02;37.39;95973.17;1724746;81;21010;-81
2022/06/20 00:17:25;;;;;;;2.65;1.40;;;;;;;24.00;37.28;95972.12;1765283;81;21373;-81
2022/06/20 00:19:51;;;;;;;2.62;1.30;;;;;;;24.00;37.36;95969.47;1721752;81;21061;-81
2022/06/20 00:22:17;;;;;;;4.35;1.70;;;;;;;23.98;37.32;95972.94;1727169;80;21014;-82
2022/06/20 00:24:42;;;;;;;3.15;1.50;;;;;;;23.95;37.41;95961.55;1679875;82;20983;-81
2022/06/20 00:27:08;;;;;;;4.72;1.75;;;;;;;23.93;37.33;95971.12;1722753;80;21000;-80
2022/06/20 00:29:35;;;;;;;4.35;1.40;;;;;;;23.93;37.50;95963.69;1688738;83;20924;-82
2022/06/20 00:32:01;;;;;;;2.60;1.60;;;;;;;23.92;37.35;95962.91;1748270;81;20924;-82
2022/06/20 00:34:27;;;;;;;2.45;1.30;;;;;;;23.90;37.46;95966.34;1729124;80;20925;-81
2022/06/20 00:36:53;;;;;;;2.92;1.20;;;;;;;23.87;37.63;95964.78;1712794;81;20975;-81
2022/06/20 00:39:19;;;;;;;2.62;1.60;;;;;;;23.85;37.63;95969.03;1719628;81;21021;-82
2022/06/20 00:41:45;;;;;;;1.95;1.42;;;;;;;23.82;37.81;95960.30;1713420;82;21389;-81
2022/06/20 00:44:14;;;;;;;3.98;1.60;;;;;;;23.85;37.56;95958.95;1678846;82;21023;-82
2022/06/20 00:46:44;;;;;;;5.15;1.50;;;;;;;23.88;37.28;95961.84;1689309;83;21004;-82
2022/06/20 00:49:35;;;;;;;5.30;1.45;;;;;;;23.99;37.18;95956.48;1747770;81;20971;-81
2022/06/20 00:52:35;;;;;;;6.92;2.37;;;;;;;24.08;37.22;95936.22;1735407;81;20975;-81
2022/06/20 00:55:33;;;;;;;3.83;1.72;;;;;;;24.10;37.09;95934.11;1718949;81;20953;-81
2022/06/20 00:58:32;;;;;;;3.30;2.12;;;;;;;24.15;37.09;95930.87;1713657;82;20999;-81
2022/06/20 01:00:58;;;;;;;6.12;1.75;;;;;;;24.17;37.10;95935.89;1732593;80;21350;-81
2022/06/20 01:03:28;;;;;;;4.95;1.57;;;;;;;24.21;36.65;95943.02;1727087;82;20962;-80
2022/06/20 01:06:02;;;;;;;4.40;1.57;;;;;;;24.27;36.81;95958.38;1722377;82;21090;-80
2022/06/20 01:08:43;;;;;;;6.30;1.50;;;;;;;24.30;36.96;95983.08;1742960;81;20991;-81
2022/06/20 01:11:21;;;;;;;5.47;1.90;;;;;;;24.29;37.65;96037.24;1719635;81;20917;-81
2022/06/20 01:13:47;;;;;;;6.78;1.80;;;;;;;24.13;38.38;96025.91;1740405;81;20978;-81
2022/06/20 01:16:21;;;;;;;4.87;1.70;;;;;;;23.94;38.56;96024.98;1718811;83;20940;-81
2022/06/20 01:18:47;;;;;;;4.80;1.92;;;;;;;23.77;39.16;96012.08;1707262;82;20949;-80
2022/06/20 01:21:23;;;;;;;6.37;1.80;;;;;;;23.58;39.31;96017.19;1725325;81;20946;-81
2022/06/20 01:24:23;;;;;;;5.67;1.50;;;;;;;23.39;40.24;96023.35;1755540;81;21486;-81
2022/06/20 01:27:15;;;;;;;3.33;1.80;;;;;;;23.14;41.04;96035.64;1741969;80;21368;-81
2022/06/20 01:29:40;;;;;;;5.72;1.92;;;;;;;22.90;41.84;96038.59;1683962;84;20995;-82
2022/06/20 01:32:06;;;;;;;4.10;1.87;;;;;;;22.75;42.82;96045.47;1719747;80;21017;-82
2022/06/20 01:34:32;;;;;;;2.33;1.57;;;;;;;22.61;43.62;96042.30;1716854;82;20957;-81
2022/06/20 01:39:44;;;;;;;4.37;2.00;;;;;;;22.34;43.38;96026.70;1735821;81;21333;-81
2022/06/20 01:42:20;;;;;;;7.12;2.15;;;;;;;22.21;43.82;96042.56;1757258;80;21003;-81
2022/06/20 01:45:57;;;;;;;5.05;2.62;;;;;;;22.06;44.04;96042.54;1727203;81;21091;-81
2022/06/20 01:47:34;;;;;;;3.50;2.00;;;;;;;21.94;44.62;96020.27;1692688;83;21011;-81
2022/06/20 01:50:03;;;;;;;3.58;2.17;;;;;;;21.81;44.66;96009.69;1731491;83;21014;-82
2022/06/20 01:52:34;;;;;;;5.75;2.30;;;;;;;21.72;45.77;96019.70;1708389;83;21430;-82
2022/06/20 01:55:07;;;;;;;5.22;2.02;;;;;;;21.56;46.20;96030.22;1728947;80;21022;-81
2022/06/20 01:57:33;;;;;;;3.33;2.22;;;;;;;21.47;47.16;96023.83;1733845;80;21001;-81
2022/06/20 02:00:10;;;;;;;3.87;1.80;;;;;;;21.38;47.51;96006.91;1678075;84;20947;-81
2022/06/20 02:02:42;;;;;;;4.40;2.17;;;;;;;21.27;47.71;95999.98;1678018;83;21338;-81
2022/06/20 02:05:11;;;;;;;5.92;2.37;;;;;;;21.18;47.56;95995.70;1720663;81;20980;-81
2022/06/20 02:07:39;;;;;;;3.75;1.95;;;;;;;21.08;48.08;95989.04;1712939;80;21001;-81
2022/06/20 02:10:07;;;;;;;2.17;1.92;;;;;;;21.01;48.00;95997.73;1678087;83;21038;-81
2022/06/20 02:12:33;;;;;;;4.65;2.17;;;;;;;20.93;48.64;95999.00;1681657;82;21016;-80
2022/06/20 02:14:58;;;;;;;3.05;1.67;;;;;;;20.85;48.82;95995.53;1752534;81;21410;-81
2022/06/20 02:17:36;;;;;;;2.52;1.87;;;;;;;20.74;48.93;95993.88;1701289;83;21022;-81
2022/06/20 02:20:06;;;;;;;3.52;2.05;;;;;;;20.64;49.34;95995.12;1708043;81;21007;-80
2022/06/20 02:22:32;;;;;;;4.83;1.82;;;;;;;20.53;49.57;95981.61;1731301;80;21051;-81
2022/06/20 02:25:03;;;;;;;3.98;1.92;;;;;;;20.44;49.76;95989.19;1740283;80;21025;-81
2022/06/20 02:27:40;;;;;;;3.27;1.67;;;;;;;20.33;50.13;96001.47;1736916;81;20985;-81
2022/06/20 02:30:07;;;;;;;3.83;1.80;;;;;;;20.17;50.75;95998.44;1705788;81;20963;-80
2022/06/20 02:32:43;;;;;;;4.95;2.02;;;;;;;20.08;51.04;95990.20;1707921;83;21341;-81
2022/06/20 02:35:13;;;;;;;2.35;1.87;;;;;;;19.99;51.37;95977.19;1736789;80;21003;-81
2022/06/20 02:37:39;;;;;;;2.45;1.55;;;;;;;19.93;51.40;95977.41;1677916;84;21066;-81
2022/06/20 02:40:09;;;;;;;3.27;1.77;;;;;;;19.87;51.30;95984.48;1704207;82;21082;-80
2022/06/20 02:42:49;;;;;;;4.62;1.75;;;;;;;19.80;51.66;95982.55;1733251;81;21317;-80
2022/06/20 02:45:15;;;;;;;2.83;1.60;;;;;;;19.74;51.97;95971.17;1741143;80;21054;-80
2022/06/20 02:47:44;;;;;;;5.80;1.87;;;;;;;19.68;52.24;95964.77;1745725;80;21388;-80
2022/06/20 02:50:13;;;;;;;4.78;1.60;;;;;;;19.62;52.03;95959.18;1740525;80;20990;-80
2022/06/20 02:53:06;;;;;;;3.15;1.70;;;;;;;19.56;52.31;95958.34;1681494;82;21010;-80
2022/06/20 02:55:33;;;;;;;2.98;1.40;;;;;;;19.52;52.33;95943.23;1702339;82;21075;-80
2022/06/20 02:58:06;;;;;;;3.60;1.55;;;;;;;19.65;50.28;95951.56;1695805;82;21054;-81
2022/06/20 03:00:36;;;;;;;2.10;1.32;;;;;;;19.88;50.05;95944.41;1737051;80;21050;-80
2022/06/20 03:03:09;;;;;;;3.22;1.30;;;;;;;20.06;49.15;95945.34;1720592;80;21098;-81
2022/06/20 03:05:37;;;;;;;2.10;1.40;;;;;;;20.32;47.93;95946.31;1677960;84;21039;-81
2022/06/20 03:08:03;;;;;;;3.20;1.35;;;;;;;20.67;47.47;95955.04;1714943;80;21090;-80
2022/06/20 03:10:38;;;;;;;5.78;1.72;;;;;;;20.89;46.86;95957.00;1747626;80;20954;-81
2022/06/20 03:13:04;;;;;;;2.98;1.45;;;;;;;21.06;46.61;95946.77;1711925;81;21315;-81
2022/06/20 03:15:29;;;;;;;2.35;1.25;;;;;;;21.23;45.94;95944.19;1712590;81;21019;-82
2022/06/20 03:17:57;;;;;;;2.15;1.40;;;;;;;21.36;45.84;95964.09;1702893;83;20959;-80
2022/06/20 03:20:25;;;;;;;3.60;1.65;;;;;;;21.46;45.96;95965.95;1695838;82;20997;-81
2022/06/20 03:23:23;;;;;;;3.30;1.35;;;;;;;21.50;45.65;95967.83;1729040;82;21402;-81
2022/06/20 03:25:48;;;;;;;2.65;1.67;;;;;;;21.55;45.28;95968.36;1747851;80;21350;-81
2022/06/20 03:28:17;;;;;;;2.15;1.52;;;;;;;21.56;46.49;95961.49;1728709;81;21075;-81
2022/06/20 03:30:43;;;;;;;3.35;1.50;;;;;;;21.55;47.44;95973.12;1739874;80;20999;-80
2022/06/20 03:33:14;;;;;;;4.47;1.77;;;;;;;21.43;47.82;95975.20;1734132;80;20997;-81
2022/06/20 03:35:37;;;;;;;3.15;1.75;;;;;;;21.31;48.79;95980.44;1737959;82;21024;-80
2022/06/20 03:38:05;;;;;;;2.25;1.62;;;;;;;21.17;48.71;95979.58;1711938;81;21015;-81
2022/06/20 03:40:31;;;;;;;3.87;2.02;;;;;;;21.09;48.49;95975.30;1718202;81;21060;-81
2022/06/20 03:42:57;;;;;;;3.20;2.00;;;;;;;21.03;48.61;95978.98;1703168;83;21031;-80
2022/06/20 03:45:27;;;;;;;4.65;1.80;;;;;;;20.96;49.57;95990.55;1750508;80;21386;-80
2022/06/20 03:48:08;;;;;;;4.12;2.05;;;;;;;20.83;50.28;95983.12;1738932;80;20996;-81
2022/06/20 03:50:48;;;;;;;4.08;2.08;;;;;;;20.74;50.10;95975.92;1725008;82;20964;-81
2022/06/20 03:53:36;;;;;;;3.87;2.08;;;;;;;20.67;51.04;95974.84;1728021;81;21014;-81
2022/06/20 03:56:06;;;;;;;7.12;1.70;;;;;;;20.62;51.63;95978.22;1711906;82;20978;-80
2022/06/20 03:58:40;;;;;;;2.65;1.80;;;;;;;20.54;52.39;95981.88;1746075;81;21387;-80
2022/06/20 04:01:13;;;;;;;3.17;1.50;;;;;;;20.48;52.94;95977.06;1717061;82;21033;-81
2022/06/20 04:03:47;;;;;;;2.12;1.77;;;;;;;20.41;53.45;95986.23;1716651;82;21361;-81
2022/06/20 04:06:25;;;;;;;3.47;2.25;;;;;;;20.33;53.80;95988.80;1710867;82;20987;-81
2022/06/20 04:11:58;;;;;;;2.75;1.62;;;;;;;20.23;54.59;95992.17;1735922;81;21046;-82
2022/06/20 04:14:33;;;;;;;2.30;1.80;;;;;;;20.18;55.16;95991.34;1717617;81;20932;-81
2022/06/20 04:18:27;;;;;;;1.90;1.62;;;;;;;20.13;55.42;95993.92;1721114;81;21031;-81
2022/06/20 04:19:35;;;;;;;4.60;1.75;;;;;;;20.07;55.86;96001.00;1703072;80;21357;-80
2022/06/20 04:22:05;;;;;;;3.05;1.90;;;;;;;20.02;56.27;96005.72;1734841;81;21313;-80
2022/06/20 04:24:48;;;;;;;3.58;1.70;;;;;;;19.95;56.41;96001.16;1707433;83;20971;-80
2022/06/20 04:27:26;;;;;;;3.40;2.00;;;;;;;19.91;57.15;96001.39;1737774;80;21379;-80
2022/06/20 04:30:03;;;;;;;2.20;1.47;;;;;;;19.86;57.64;95997.91;1724049;82;21026;-80
2022/06/20 04:32:42;;;;;;;3.95;1.70;;;;;;;19.83;58.08;95999.19;1718412;81;20927;-80
2022/06/20 04:35:24;;;;;;;2.60;1.90;;;;;;;19.81;58.07;96000.48;1725650;81;20978;-82
2022/06/20 04:38:07;;;;;;;3.87;1.82;;;;;;;19.81;58.63;95994.69;1736695;81;21030;-81
2022/06/20 04:40:40;;;;;;;4.10;1.87;;;;;;;19.79;58.62;95992.30;1727523;81;21085;-81
2022/06/20 04:43:29;;;;;;;3.72;1.98;;;;;;;19.83;58.76;95995.75;1736657;81;21050;-81
2022/06/20 04:46:22;;;;;;;3.70;1.90;;;;;;;19.85;59.27;95997.61;1724205;81;20970;-81
2022/06/20 04:48:48;;;;;;;5.03;2.00;;;;;;;19.87;59.64;96005.58;1745953;80;21002;-81
2022/06/20 04:51:18;;;;;;;5.53;2.00;;;;;;;19.87;59.99;96013.48;1744831;80;20971;-81
2022/06/20 04:53:45;;;;;;;4.92;2.02;;;;;;;19.85;59.86;96010.30;1719355;80;21365;-81
2022/06/20 04:56:14;;;;;;;2.70;1.92;;;;;;;19.87;60.01;96023.23;1755856;80;20982;-81
2022/06/20 04:58:51;;;;;;;3.02;2.20;;;;;;;19.87;60.44;96020.08;1726705;81;20967;-81
2022/06/20 05:01:17;;;;;;;2.45;1.60;;;;;;;19.88;60.71;96024.83;1705318;82;20959;-82
2022/06/20 05:03:46;;;;;;;3.33;1.80;;;;;;;19.91;61.10;96027.75;1732123;81;21042;-82
2022/06/20 05:06:19;;;;;;;4.47;1.90;;;;;;;19.91;61.29;96033.55;1740858;81;20962;-81
2022/06/20 05:08:49;;;;;;;9.08;2.62;;;;;;;19.92;61.51;96030.66;1698696;83;21769;-81
2022/06/20 05:11:25;;;;;;;2.10;1.90;;;;;;;19.96;61.68;96029.64;1740529;82;21001;-81
2022/06/20 05:13:56;;;;;;;2.30;1.82;;;;;;;20.00;61.90;96020.97;1733805;82;20913;-81
2022/06/20 05:16:29;;;;;;;3.60;2.23;;;;;;;20.06;61.74;96017.35;1732649;81;21295;-81
2022/06/20 05:18:59;;;;;;;3.67;2.20;;;;;;;20.09;61.77;96014.20;1738927;82;20965;-81
2022/06/20 05:21:29;;;;;;;4.47;2.15;;;;;;;20.14;62.05;96012.66;1727697;80;21299;-81
2022/06/20 05:23:58;;;;;;;3.87;2.02;;;;;;;20.15;62.42;96016.36;1727165;82;20937;-82
2022/06/20 05:26:27;;;;;;;8.63;2.62;;;;;;;20.16;62.55;96016.63;1733709;82;21001;-81
2022/06/20 05:28:54;;;;;;;4.62;2.22;;;;;;;20.19;62.80;96014.83;1726692;82;20976;-81
2022/06/20 05:31:28;;;;;;;3.30;1.85;;;;;;;20.24;62.85;96012.23;1720125;82;20941;-81
2022/06/20 05:34:32;;;;;;;4.03;2.25;;;;;;;20.29;62.67;96009.63;1720144;82;21001;-82
2022/06/20 05:37:14;;;;;;;4.25;2.33;;;;;;;20.36;62.51;96016.02;1725669;82;21089;-82
2022/06/20 05:39:47;;;;;;;3.75;2.25;;;;;;;20.39;63.11;96008.92;1728850;82;21021;-82
2022/06/20 05:42:16;;;;;;;3.80;2.33;;;;;;;20.43;63.76;96000.00;1730481;82;21296;-81
2022/06/20 05:44:42;;;;;;;3.83;2.10;;;;;;;20.45;63.52;95998.69;1737832;82;20961;-81
2022/06/20 05:47:22;;;;;;;3.98;2.37;;;;;;;20.50;64.21;96003.20;1713556;82;20933;-81
2022/06/20 05:49:54;;;;;;;2.30;2.00;;;;;;;20.55;63.85;96002.73;1733356;82;20925;-81
2022/06/20 05:52:23;;;;;;;4.50;2.10;;;;;;;20.62;64.51;96006.46;1738075;82;21000;-81
2022/06/20 05:55:05;;;;;;;2.98;1.80;;;;;;;20.70;64.48;96012.60;1729425;82;21355;-81
2022/06/20 05:57:31;;;;;;;4.40;3.12;;;;;;;20.75;64.71;96012.63;1726051;83;21010;-81
2022/06/20 06:00:18;;;;;;;2.83;2.12;;;;;;;20.79;65.00;96015.55;1735576;80;20987;-80
2022/06/20 06:02:47;;;;;;;3.50;2.22;;;;;;;20.84;64.56;96015.08;1714065;81;21013;-80
2022/06/20 06:05:40;;;;;;;2.27;1.85;;;;;;;20.90;64.04;96011.92;1754464;82;21347;-81
2022/06/20 06:08:37;;;;;;;4.92;2.42;;;;;;;20.95;63.45;96002.17;1754456;82;21318;-81
2022/06/20 06:11:24;;;;;;;4.15;2.35;;;;;;;21.02;63.22;96013.05;1753847;82;21401;-80
2022/06/20 06:14:13;;;;;;;2.90;2.20;;;;;;;21.10;62.74;96017.84;1756225;80;21357;-80
2022/06/20 06:17:00;;;;;;;4.40;2.20;;;;;;;21.21;62.02;96014.20;1751760;82;21027;-80
2022/06/20 06:19:55;;;;;;;3.00;2.20;;;;;;;21.28;62.35;96008.17;1751660;80;21419;-80
2022/06/20 06:22:25;;;;;;;4.08;2.65;;;;;;;21.32;62.69;96014.55;1755479;82;20976;-81
2022/06/20 06:25:17;;;;;;;3.15;2.77;;;;;;;21.42;62.97;96019.06;1738898;82;21063;-81
2022/06/20 06:27:43;;;;;;;6.60;3.30;;;;;;;21.51;62.15;96023.61;1735879;82;21047;-80
2022/06/20 06:30:19;;;;;;;3.45;2.55;;;;;;;21.62;63.23;96015.69;1752194;82;20975;-81
2022/06/20 06:33:20;;;;;;;3.80;2.67;;;;;;;21.69;62.78;96013.61;1747807;81;21405;-81
2022/06/20 06:35:45;;;;;;;5.03;3.05;;;;;;;21.79;63.15;96001.72;1749165;82;20960;-81
2022/06/20 06:38:40;;;;;;;4.90;2.52;;;;;;;21.85;63.16;95998.84;1754521;82;21007;-81
2022/06/20 06:41:14;;;;;;;3.98;2.98;;;;;;;21.94;62.17;95999.63;1754537;82;21058;-81
2022/06/20 06:43:44;;;;;;;3.52;2.83;;;;;;;22.05;62.32;95978.78;1734768;80;21061;-81
2022/06/20 06:46:25;;;;;;;6.12;2.65;;;;;;;22.15;62.54;95975.63;1743049;80;21425;-81
2022/06/20 06:48:59;;;;;;;3.70;2.92;;;;;;;22.22;62.51;95983.28;1752950;82;20995;-81
2022/06/20 06:51:40;;;;;;;4.45;3.12;;;;;;;22.31;63.09;95982.24;1725268;82;20987;-82
2022/06/20 06:54:22;;;;;;;5.53;3.02;;;;;;;22.39;61.82;95985.13;1730648;80;21098;-82
2022/06/20 06:56:56;;;;;;;6.92;3.22;;;;;;;22.55;62.03;95987.23;1750033;81;20975;-81
2022/06/20 06:59:36;;;;;;;4.53;3.15;;;;;;;22.70;61.21;95977.16;1754680;82;20944;-81
2022/06/20 07:02:03;;;;;;;4.45;3.50;;;;;;;22.80;59.99;95976.35;1751057;80;20995;-82
2022/06/20 07:04:55;;;;;;;6.72;3.47;;;;;;;22.95;60.00;95975.81;1739238;82;20944;-81
2022/06/20 07:07:35;;;;;;;4.37;2.72;;;;;;;23.05;61.07;95967.02;1726402;82;21038;-80
2022/06/20 07:10:01;;;;;;;4.08;3.17;;;;;;;23.17;60.84;95967.52;1724314;80;21003;-81
2022/06/20 07:12:34;;;;;;;5.45;3.42;;;;;;;23.25;60.84;95970.13;1735120;81;20991;-81
2022/06/20 07:15:14;;;;;;;5.78;2.87;;;;;;;23.31;60.59;95964.54;1705929;83;20993;-81
2022/06/20 07:17:53;;;;;;;4.17;2.77;;;;;;;23.44;57.88;95966.34;1726197;81;21016;-81
2022/06/20 07:20:24;;;;;;;6.70;3.37;;;;;;;23.55;58.17;95964.67;1728271;81;21002;-80
2022/06/20 07:22:50;;;;;;;5.75;3.45;;;;;;;23.67;58.13;95968.36;1679169;84;21071;-81
2022/06/20 07:25:27;;;;;;;4.95;2.87;;;;;;;23.80;58.80;95971.73;1680785;82;21079;-81
2022/06/20 07:28:01;;;;;;;4.78;3.00;;;;;;;23.87;57.24;95972.20;1720238;83;21034;-81
2022/06/20 07:30:32;;;;;;;6.15;3.02;;;;;;;23.95;56.30;95969.52;1730529;83;21026;-82
2022/06/20 07:33:04;;;;;;;4.85;3.05;;;;;;;24.02;56.26;95955.38;1700761;83;21009;-80
2022/06/20 07:35:37;;;;;;;7.47;3.22;;;;;;;24.09;58.10;95959.86;1735063;83;20985;-81
2022/06/20 07:38:17;;;;;;;4.92;2.98;;;;;;;24.11;56.30;95950.29;1730306;81;20963;-82
2022/06/20 07:41:06;;;;;;;3.67;3.22;;;;;;;24.20;56.20;95941.97;1736298;82;21016;-81
2022/06/20 07:43:40;;;;;;;4.33;3.40;;;;;;;24.27;55.41;95937.14;1704564;82;21464;-82
2022/06/20 07:46:17;;;;;;;6.28;4.03;;;;;;;24.36;55.84;95936.02;1700808;82;21028;-81
2022/06/20 07:48:44;;;;;;;4.97;3.22;;;;;;;24.48;54.77;95944.41;1746818;81;20948;-81
2022/06/20 07:51:25;;;;;;;4.05;3.42;;;;;;;24.58;54.95;95944.33;1742129;81;20994;-82
2022/06/20 07:54:11;;;;;;;4.22;3.22;;;;;;;24.66;55.24;95950.88;1709061;81;20964;-81
2022/06/20 07:57:02;;;;;;;7.22;3.55;;;;;;;24.73;54.55;95940.19;1693993;83;21478;-81
2022/06/20 07:59:53;;;;;;;4.75;3.27;;;;;;;24.78;53.92;95923.39;1644218;84;21033;-82
2022/06/20 08:02:36;;;;;;;6.23;3.53;;;;;;;24.92;54.65;95929.61;1716255;81;21015;-81
2022/06/20 08:05:03;;;;;;;5.08;3.42;;;;;;;25.00;53.66;95928.21;1710563;83;21705;-82
2022/06/20 08:07:40;;;;;;;6.00;3.10;;;;;;;25.11;53.64;95926.48;1738231;80;21041;-81
2022/06/20 08:10:26;;;;;;;4.50;3.33;;;;;;;25.21;55.97;95922.09;1734894;81;21077;-81
2022/06/20 08:13:08;;;;;;;5.45;3.85;;;;;;;25.28;55.90;95908.72;1743415;81;21055;-82
2022/06/20 08:15:54;;;;;;;4.15;3.22;;;;;;;25.38;55.80;95905.12;1725640;81;21019;-80
2022/06/20 08:18:21;;;;;;;3.35;2.65;;;;;;;25.52;55.62;95899.34;1730956;81;21017;-81
2022/06/20 08:20:51;;;;;;;5.40;3.40;;;;;;;25.71;54.02;95892.73;1722987;80;21012;-81
2022/06/20 08:23:37;;;;;;;5.33;3.30;;;;;;;25.86;54.15;95881.03;1721596;81;20939;-81
2022/06/20 08:26:07;;;;;;;5.37;3.42;;;;;;;26.00;55.60;95873.88;1719659;80;21025;-82
2022/06/20 08:28:55;;;;;;;4.78;3.40;;;;;;;26.11;55.78;95868.64;1722656;80;20965;-81
2022/06/20 08:31:47;;;;;;;5.50;3.40;;;;;;;26.26;53.49;95871.04;1717215;81;20986;-81
2022/06/20 08:34:20;;;;;;;3.90;2.92;;;;;;;26.45;53.56;95860.88;1734306;80;21019;-81
2022/06/20 08:37:24;;;;;;;4.55;3.17;;;;;;;26.90;53.11;95850.66;1737019;81;21013;-81
2022/06/20 08:39:59;;;;;;;4.40;3.02;;;;;;;26.90;53.11;95850.66;1753828;80;21175;-82
2022/06/20 08:42:36;;;;;;;6.95;3.12;;;;;;;27.29;52.00;95837.31;1727145;80;20987;-82
2022/06/20 08:45:19;;;;;;;4.83;3.55;;;;;;;27.29;52.00;95837.31;1737270;80;20968;-82
2022/06/20 08:48:09;;;;;;;4.35;3.20;;;;;;;27.44;50.69;95844.19;1733255;80;21393;-81
2022/06/20 08:51:12;;;;;;;5.70;3.20;;;;;;;27.58;51.68;95834.80;1711277;83;20927;-81
2022/06/20 08:54:00;;;;;;;4.92;3.05;;;;;;;27.70;51.69;95837.75;1725956;80;21305;-82
2022/06/20 08:56:58;;;;;;;4.42;2.90;;;;;;;27.89;51.12;95847.69;1722312;80;21049;-82
2022/06/20 09:00:05;;;;;;;4.58;3.00;;;;;;;28.05;51.00;95844.88;1715174;80;20931;-82
2022/06/20 09:03:12;;;;;;;6.20;3.22;;;;;;;28.13;48.88;95837.20;1748623;80;21020;-82
2022/06/20 09:06:05;;;;;;;5.33;3.00;;;;;;;28.27;49.44;95828.59;1738537;80;20991;-81
2022/06/20 09:08:52;;;;;;;4.97;3.25;;;;;;;28.40;50.10;95825.03;1732750;80;21332;-83
2022/06/20 09:11:53;;;;;;;6.55;3.47;;;;;;;28.57;49.54;95817.08;1741653;80;21439;-82
2022/06/20 09:14:45;;;;;;;5.60;3.00;;;;;;;28.70;49.11;95800.69;1724175;83;20993;-82
2022/06/20 09:17:21;;;;;;;5.58;3.30;;;;;;;28.80;50.78;95792.38;1736290;82;20962;-82
2022/06/20 09:20:02;;;;;;;4.42;2.47;;;;;;;28.88;50.71;95798.86;1705470;84;21048;-80
2022/06/20 09:22:52;;;;;;;5.12;2.83;;;;;;;28.88;48.54;95796.98;1697773;82;21004;-83
2022/06/20 09:25:46;;;;;;;4.67;2.70;;;;;;;28.96;48.95;95792.20;1756155;81;20942;-82
2022/06/20 09:28:44;;;;;;;3.98;2.22;;;;;;;29.02;49.74;95784.02;1723833;80;21031;-82
2022/06/20 09:31:24;;;;;;;3.00;2.10;;;;;;;29.07;46.18;95773.16;1729673;82;21400;-82
2022/06/20 09:34:10;;;;;;;3.70;2.27;;;;;;;29.18;46.14;95774.42;1696397;84;21030;-81
2022/06/20 09:36:53;;;;;;;5.10;1.80;;;;;;;29.28;45.26;95762.84;1699619;83;20979;-81
2022/06/20 09:39:41;;;;;;;6.22;2.27;;;;;;;29.30;46.00;95759.88;1723936;80;21420;-81
2022/06/20 09:42:34;;;;;;;8.33;2.10;;;;;;;29.38;44.75;95750.25;1693219;81;20999;-81
2022/06/20 09:45:40;;;;;;;3.83;1.70;;;;;;;29.46;41.35;95737.45;1714971;83;21015;-81
2022/06/20 09:48:36;;;;;;;5.10;1.72;;;;;;;29.67;40.35;95734.33;1748145;80;21092;-83
2022/06/20 09:51:33;;;;;;;4.70;2.17;;;;;;;29.79;40.78;95729.11;1747558;80;21019;-82
2022/06/20 09:54:26;;;;;;;3.22;1.37;;;;;;;29.93;39.38;95729.43;1703336;83;21056;-82
2022/06/20 09:57:13;;;;;;;3.33;1.50;;;;;;;30.04;38.55;95731.47;1693983;80;21070;-81
2022/06/20 10:00:06;;;;;;;4.15;2.12;;;;;;;30.16;37.37;95732.92;1734439;81;20999;-82
2022/06/20 10:03:05;;;;;;;4.62;1.35;;;;;;;30.24;37.26;95722.47;1767586;81;21322;-82
2022/06/20 10:05:45;;;;;;;2.40;1.40;;;;;;;30.39;37.86;95725.94;1727757;81;20963;-82
2022/06/20 10:08:36;;;;;;;6.00;2.00;;;;;;;30.52;38.34;95727.60;1724664;80;20990;-81
2022/06/20 10:11:25;;;;;;;4.47;1.37;;;;;;;30.64;37.71;95735.77;1722496;81;21015;-83
2022/06/20 10:14:18;;;;;;;5.42;1.40;;;;;;;30.78;36.52;95739.55;1729534;81;20960;-82
2022/06/20 10:17:07;;;;;;;5.95;1.70;;;;;;;30.90;35.29;95735.56;1725147;81;21002;-83
2022/06/20 10:19:40;;;;;;;5.37;1.65;;;;;;;31.00;34.08;95744.58;1662767;84;21044;-82
2022/06/20 10:22:13;;;;;;;4.03;1.52;;;;;;;31.11;33.90;95741.51;1674112;85;21519;-81
2022/06/20 10:25:13;;;;;;;4.42;1.72;;;;;;;31.19;33.40;95745.47;1699035;81;20939;-81
2022/06/20 10:27:51;;;;;;;4.95;1.57;;;;;;;31.25;34.04;95745.52;1734152;81;20991;-81
2022/06/20 10:30:38;;;;;;;4.05;1.37;;;;;;;31.38;34.32;95744.98;1759984;81;20971;-81
2022/06/20 10:33:27;;;;;;;4.72;1.75;;;;;;;31.50;34.78;95744.25;1745247;81;21385;-81
2022/06/20 10:36:04;;;;;;;3.20;1.92;;;;;;;31.63;34.15;95756.61;1752222;81;21388;-83
2022/06/20 10:38:41;;;;;;;6.42;3.00;;;;;;;31.69;33.21;95762.54;1735197;81;21074;-81
2022/06/20 10:41:27;;;;;;;4.65;2.52;;;;;;;31.69;36.51;95775.41;1732799;81;21038;-81
2022/06/20 10:44:29;;;;;;;5.67;2.65;;;;;;;31.65;38.95;95784.69;1732546;82;21055;-82
2022/06/20 10:47:08;;;;;;;3.72;2.75;;;;;;;31.60;39.44;95794.87;1677901;84;21077;-83
2022/06/20 10:50:10;;;;;;;4.75;3.15;;;;;;;31.44;38.61;95798.72;1740239;82;21397;-82
2022/06/20 10:53:17;;;;;;;4.87;2.83;;;;;;;31.30;39.64;95790.15;1732229;82;20962;-83
2022/06/20 10:55:57;;;;;;;4.62;2.77;;;;;;;31.31;38.87;95793.06;1737484;82;21081;-83
2022/06/20 10:58:40;;;;;;;3.98;2.90;;;;;;;31.38;39.48;95788.49;1731858;81;21018;-82
2022/06/20 11:01:33;;;;;;;4.45;3.15;;;;;;;31.34;40.17;95788.38;1732505;81;20998;-81
2022/06/20 11:04:22;;;;;;;4.65;3.17;;;;;;;31.31;39.82;95785.79;1724752;82;20998;-83
2022/06/20 11:07:17;;;;;;;4.75;2.77;;;;;;;31.31;39.69;95780.98;1712919;81;20974;-82
2022/06/20 11:10:15;;;;;;;5.65;3.22;;;;;;;31.35;40.83;95772.49;1720710;82;20971;-83
2022/06/20 11:12:59;;;;;;;5.90;2.92;;;;;;;31.35;39.23;95773.28;1724106;81;21659;-81
2022/06/20 11:15:52;;;;;;;6.40;3.22;;;;;;;31.39;39.31;95772.05;1713578;81;21009;-81
2022/06/20 11:18:57;;;;;;;4.85;2.95;;;;;;;31.42;39.38;95768.73;1702657;81;21397;-81
2022/06/20 11:21:47;;;;;;;4.33;2.62;;;;;;;31.50;40.71;95778.59;1667274;81;21062;-81
2022/06/20 11:24:40;;;;;;;6.12;2.50;;;;;;;31.54;40.43;95775.47;1725888;81;20967;-81
2022/06/20 11:27:40;;;;;;;3.45;2.72;;;;;;;31.56;39.07;95775.14;1728441;81;21050;-81
2022/06/20 11:30:36;;;;;;;4.83;2.67;;;;;;;31.64;39.30;95772.94;1716123;81;20990;-82
2022/06/20 11:36:18;;;;;;;4.65;2.25;;;;;;;31.94;37.52;95777.64;1715590;81;21460;-82
2022/06/20 11:39:23;;;;;;;7.35;2.17;;;;;;;32.16;37.48;95791.22;1712681;81;20970;-84
2022/06/20 11:42:17;;;;;;;4.45;2.20;;;;;;;32.41;36.41;95800.13;1722933;81;21420;-82
2022/06/20 11:45:03;;;;;;;6.80;2.02;;;;;;;32.50;35.05;95808.85;1721553;80;21033;-82
2022/06/20 11:47:56;;;;;;;6.53;2.17;;;;;;;32.43;33.72;95822.87;1727656;81;20967;-82
2022/06/20 11:50:35;;;;;;;5.97;2.12;;;;;;;32.19;33.66;95839.70;1665673;81;21062;-82
2022/06/20 11:53:16;;;;;;;5.05;2.70;;;;;;;31.96;34.31;95856.00;1703012;81;20970;-82
2022/06/20 11:56:01;;;;;;;;;;;;;;;31.70;34.74;95868.29;1714910;81;21066;-83
2022/06/20 11:59:10;;;;;;;6.12;5.12;;;;;;;31.33;34.67;95878.84;1716228;81;20386;-81
2022/06/20 12:01:47;;;;;;;6.03;2.70;;;;;;;30.96;35.27;95893.89;1674804;83;21421;-83
2022/06/20 12:04:25;;;;;;;7.08;3.72;;;;;;;30.50;35.54;95908.64;1700201;82;21390;-83
2022/06/20 12:06:59;;;;;;;7.08;2.80;;;;;;;30.15;36.03;96008.66;1749557;80;20975;-82
2022/06/20 12:09:42;;;;;;;9.25;2.62;;;;;;;29.61;36.44;95988.56;1710734;81;20931;-82
2022/06/20 12:13:02;;;;;;;9.95;3.30;;;;;;;29.12;36.97;95993.13;1709158;81;20977;-82
2022/06/20 12:16:07;;;;;;;8.68;2.70;;;;;;;28.70;37.92;95983.80;1723033;83;20914;-82
2022/06/20 12:24:46;;;;;;;4.20;1.30;;;;;;;27.99;38.00;96010.34;1747720;81;21095;-81
2022/06/20 12:27:16;;;;;;;4.37;1.50;;;;;;;27.78;38.23;96010.52;1732279;83;21234;-81
2022/06/20 12:29:41;;;;;;;6.40;1.50;;;;;;;27.60;38.26;96018.88;1756079;80;21315;-81
2022/06/20 12:32:21;;;;;;;6.58;2.00;;;;;;;27.50;39.33;96007.09;1729178;83;21026;-81
2022/06/20 12:35:12;;;;;;;3.12;1.50;;;;;;;27.40;40.29;96012.08;1683519;83;21008;-83
2022/06/20 12:38:01;;;;;;;4.05;1.35;;;;;;;27.25;40.55;96001.71;1721761;83;21027;-82
2022/06/20 12:40:41;;;;;;;4.28;1.30;;;;;;;27.15;42.29;96004.02;1642450;86;20984;-82
2022/06/20 12:43:20;;;;;;;3.10;1.20;;;;;;;26.97;42.77;96014.20;1715946;80;21010;-81